This is the latest recevied weather packets stored in our database for station/object W4KBW. If no packets are shown the sender has not sent any weather packets the latest 1 day(s).
| Time | Temp. | Humidity | Pressure | Rain* | Wind** | Luminosity | Snow |
|---|---|---|---|---|---|---|---|
| 1778029804 | 23.89° C | 100% | 1014.7 hPa | 0 mm | 0.45 m/s, 87° | - | - |
| 1778029643 | 23.89° C | 100% | 1014.7 hPa | 0 mm | 0.45 m/s, 87° | - | - |
| 1778029037 | 23.89° C | 100% | 1014.4 hPa | 0 mm | 0.45 m/s, 81° | - | - |
| 1778028992 | 23.89° C | 100% | 1014.4 hPa | 0 mm | 0.45 m/s, 81° | - | - |
| 1778028743 | 23.89° C | 100% | 1014.4 hPa | 0 mm | 0.45 m/s, 81° | - | - |
| 1778027843 | 24.44° C | 100% | 1014.3 hPa | 0 mm | 0 m/s | - | - |
| 1778027159 | 24.44° C | 100% | 1014.3 hPa | 0 mm | 0 m/s | - | - |
| 1778026943 | 24.44° C | 100% | 1014.3 hPa | 0 mm | 0 m/s | - | - |
| 1778026013 | 25° C | 100% | 1013.9 hPa | 0 mm | 3.13 m/s, 101° | - | - |
| 1778025217 | 25.56° C | 100% | 1013.8 hPa | 0 mm | 0.89 m/s, 77° | - | - |
| 1778025083 | 25.56° C | 100% | 1013.8 hPa | 0 mm | 0.89 m/s, 77° | - | - |
| 1778024412 | 25.56° C | 100% | 1013.8 hPa | 0 mm | 1.79 m/s, 106° | - | - |
| 1778024183 | 25.56° C | 100% | 1013.8 hPa | 0 mm | 1.79 m/s, 106° | - | - |
| 1778023283 | 26.11° C | 100% | 1013.7 hPa | 0 mm | 2.24 m/s, 38° | - | - |
| 1778022383 | 26.67° C | 100% | 1013.7 hPa | 0 mm | 0.89 m/s, 30° | - | - |
| 1778021678 | 26.67° C | 100% | 1013.8 hPa | 0 mm | 1.34 m/s, 65° | - | - |
| 1778021483 | 26.67° C | 100% | 1013.8 hPa | 0 mm | 1.34 m/s, 65° | - | - |
| 1778020830 | 27.22° C | 100% | 1013.8 hPa | 0 mm | 0 m/s | - | - |
| 1778020583 | 27.22° C | 100% | 1013.8 hPa | 0 mm | 0 m/s | - | - |
| 1778019903 | 27.22° C | 100% | 1013.8 hPa | 0 mm | 0 m/s | - | - |
| 1778019653 | 27.22° C | 100% | 1013.8 hPa | 0 mm | 0 m/s | - | - |
| 1778019006 | 27.22° C | 100% | 1013.8 hPa | 0 mm | 1.79 m/s, 23° | - | - |
| 1778018753 | 27.22° C | 100% | 1013.8 hPa | 0 mm | 1.79 m/s, 23° | - | - |
| 1778017985 | 28.33° C | 100% | 1013.7 hPa | 0 mm | 0.89 m/s, 45° | - | - |
| 1778017853 | 28.33° C | 100% | 1013.7 hPa | 0 mm | 0.89 m/s, 45° | - | - |
* Rain latest hour (hover to see other rain measurements)
** Current wind speed in m/s (hover to see current wind gust speed)